createdAt,value
2023-06-21T00:00:02.046Z,61.00
2023-06-21T00:02:29.847Z,68.90
2023-06-21T00:04:57.317Z,50.20
2023-06-21T00:07:25.309Z,39.70
2023-06-21T00:09:53.583Z,32.60
2023-06-21T00:12:21.690Z,32.80
2023-06-21T00:14:49.215Z,23.30
2023-06-21T00:17:16.304Z,22.50
2023-06-21T00:19:43.822Z,21.20
2023-06-21T00:22:11.318Z,23.20
2023-06-21T00:24:38.815Z,26.10
2023-06-21T00:27:06.327Z,27.70
2023-06-21T00:29:33.843Z,31.90
2023-06-21T00:32:01.390Z,39.80
2023-06-21T00:34:28.837Z,38.70
2023-06-21T00:36:55.992Z,43.10
2023-06-21T00:39:23.591Z,42.50
2023-06-21T00:41:50.777Z,37.10
2023-06-21T00:44:18.640Z,49.00
2023-06-21T00:46:45.796Z,63.00
2023-06-21T00:49:13.573Z,67.60
2023-06-21T00:51:41.762Z,79.20
2023-06-21T00:54:23.381Z,99.90
2023-06-21T00:56:50.518Z,99.90
2023-06-21T00:59:18.227Z,99.90
2023-06-21T01:01:45.331Z,99.90
2023-06-21T01:04:14.006Z,99.90
2023-06-21T01:07:11.046Z,99.90
2023-06-21T01:10:09.686Z,99.90
2023-06-21T01:12:58.348Z,99.90
2023-06-21T01:15:28.364Z,99.90
2023-06-21T01:18:00.655Z,99.90
2023-06-21T01:20:35.207Z,99.90
2023-06-21T01:23:26.446Z,99.90
2023-06-21T01:26:21.340Z,99.90
2023-06-21T01:29:09.911Z,99.90
2023-06-21T01:31:43.589Z,99.90
2023-06-21T01:34:11.573Z,99.90
2023-06-21T01:36:40.916Z,99.90
2023-06-21T01:39:11.349Z,99.90
2023-06-21T01:41:40.239Z,99.90
2023-06-21T01:44:10.692Z,99.90
2023-06-21T01:46:39.920Z,99.90
2023-06-21T01:49:09.367Z,99.90
2023-06-21T01:51:39.665Z,99.90
2023-06-21T01:54:07.400Z,99.90
2023-06-21T01:56:38.464Z,99.90
2023-06-21T01:59:05.697Z,99.90
2023-06-21T02:01:34.424Z,99.90
2023-06-21T02:04:02.952Z,99.90
2023-06-21T02:06:31.922Z,99.90
2023-06-21T02:09:01.424Z,99.90
2023-06-21T02:11:29.239Z,99.90
2023-06-21T02:13:56.355Z,99.90
2023-06-21T02:16:30.787Z,99.90
2023-06-21T02:18:58.113Z,99.90
2023-06-21T02:21:25.697Z,99.90
2023-06-21T02:23:52.816Z,99.90
2023-06-21T02:26:20.604Z,99.90
2023-06-21T02:28:48.166Z,99.90
2023-06-21T02:31:15.593Z,99.90
2023-06-21T02:33:50.211Z,99.90
2023-06-21T02:36:18.162Z,99.90
2023-06-21T02:38:46.183Z,99.90
2023-06-21T02:41:13.917Z,99.90
2023-06-21T02:43:41.098Z,99.90
2023-06-21T02:46:08.530Z,99.90
2023-06-21T02:48:35.899Z,99.90
2023-06-21T02:51:03.902Z,99.90
2023-06-21T02:53:31.216Z,99.90
2023-06-21T02:55:59.089Z,1.00
2023-06-21T02:58:26.278Z,1.00
2023-06-21T03:00:53.422Z,1.00
2023-06-21T03:03:21.160Z,1.00
2023-06-21T03:05:48.284Z,12.60
2023-06-21T03:08:16.102Z,46.40
2023-06-21T03:10:43.156Z,17.20
2023-06-21T03:13:10.483Z,99.90
2023-06-21T03:15:37.523Z,99.90
2023-06-21T03:18:05.047Z,99.90
2023-06-21T03:20:32.888Z,99.90
2023-06-21T03:23:00.262Z,96.70
2023-06-21T03:25:28.374Z,94.30
2023-06-21T03:27:55.751Z,99.90
2023-06-21T03:30:23.175Z,99.90
2023-06-21T03:32:50.654Z,99.90
2023-06-21T03:35:19.722Z,99.90
2023-06-21T03:37:47.916Z,99.90
2023-06-21T03:40:15.719Z,99.90
2023-06-21T03:42:44.298Z,99.90
2023-06-21T03:45:11.898Z,99.90
2023-06-21T03:47:41.426Z,99.90
2023-06-21T03:50:09.730Z,99.90
2023-06-21T03:52:38.027Z,99.90
2023-06-21T03:55:06.502Z,99.90
2023-06-21T03:57:34.105Z,99.90
2023-06-21T04:00:01.306Z,99.90
2023-06-21T04:02:28.527Z,99.90
2023-06-21T04:04:56.008Z,1.00
2023-06-21T04:07:24.288Z,1.00
2023-06-21T04:09:52.791Z,99.90
2023-06-21T04:12:19.894Z,99.90
2023-06-21T04:14:47.225Z,99.90
2023-06-21T04:17:14.455Z,99.90
2023-06-21T04:19:41.778Z,99.90
2023-06-21T04:22:09.086Z,99.90
2023-06-21T04:24:38.768Z,99.90
2023-06-21T04:27:07.163Z,99.90
2023-06-21T04:29:37.967Z,96.70
2023-06-21T04:32:05.325Z,79.80
2023-06-21T04:34:34.275Z,21.90
2023-06-21T04:37:06.396Z,1.00
2023-06-21T04:39:35.152Z,1.00
2023-06-21T04:42:03.695Z,1.00
2023-06-21T04:44:31.572Z,1.00
2023-06-21T04:47:01.765Z,1.00
2023-06-21T04:49:31.670Z,1.00
2023-06-21T04:51:59.649Z,1.00
2023-06-21T04:54:27.879Z,1.00
2023-06-21T04:56:54.886Z,1.00
2023-06-21T04:59:22.768Z,1.00
2023-06-21T05:01:50.222Z,1.00
2023-06-21T05:04:17.681Z,1.00
2023-06-21T05:06:44.865Z,4.10
2023-06-21T05:09:12.135Z,30.90
2023-06-21T05:11:39.302Z,10.30
2023-06-21T05:14:06.976Z,1.00
2023-06-21T05:16:34.250Z,1.00
2023-06-21T05:19:01.873Z,15.50
2023-06-21T05:21:28.890Z,29.90
2023-06-21T05:23:56.203Z,38.90
2023-06-21T05:26:23.319Z,28.10
2023-06-21T05:28:50.673Z,19.10
2023-06-21T05:31:18.971Z,37.30
2023-06-21T05:33:46.296Z,69.50
2023-06-21T05:36:13.361Z,94.50
2023-06-21T05:38:40.912Z,99.90
2023-06-21T05:41:07.929Z,99.90
2023-06-21T05:43:35.272Z,99.90
2023-06-21T05:46:02.527Z,99.90
2023-06-21T05:48:30.843Z,99.90
2023-06-21T05:50:57.985Z,1.00
2023-06-21T05:53:25.307Z,99.90
2023-06-21T05:55:54.198Z,99.90
2023-06-21T05:58:22.203Z,1.00
2023-06-21T06:00:49.974Z,99.90
2023-06-21T06:03:17.316Z,99.90
2023-06-21T06:05:45.649Z,99.90
2023-06-21T06:08:12.950Z,99.90
2023-06-21T06:10:40.239Z,99.90
2023-06-21T06:13:07.852Z,99.90
2023-06-21T06:15:34.906Z,99.90
2023-06-21T06:18:02.510Z,99.90
2023-06-21T06:20:30.559Z,1.00
2023-06-21T06:22:58.536Z,1.00
2023-06-21T06:25:25.592Z,1.00
2023-06-21T06:27:52.890Z,1.00
2023-06-21T06:30:19.975Z,30.00
2023-06-21T06:32:47.411Z,28.90
2023-06-21T06:35:14.637Z,30.00
2023-06-21T06:37:41.995Z,26.30
2023-06-21T06:40:10.054Z,1.00
2023-06-21T06:42:39.653Z,1.00
2023-06-21T06:45:08.025Z,1.00
2023-06-21T06:47:35.571Z,1.00
2023-06-21T06:50:05.944Z,1.00
2023-06-21T06:52:33.367Z,1.00
2023-06-21T06:57:36.435Z,1.00
2023-06-21T07:00:10.198Z,1.00
2023-06-21T07:02:37.814Z,1.00
2023-06-21T07:05:05.561Z,1.00
2023-06-21T07:07:32.955Z,1.00
2023-06-21T07:10:00.149Z,1.00
2023-06-21T07:12:27.454Z,1.00
2023-06-21T07:14:54.639Z,1.00
2023-06-21T07:17:24.968Z,1.00
2023-06-21T07:19:52.218Z,1.00
2023-06-21T07:22:19.608Z,1.00
2023-06-21T07:24:46.649Z,1.00
2023-06-21T07:27:14.153Z,1.00
2023-06-21T07:29:41.388Z,1.00
2023-06-21T07:32:08.860Z,1.00
2023-06-21T07:34:36.096Z,99.90
2023-06-21T07:37:03.715Z,99.90
2023-06-21T07:39:41.444Z,99.90
2023-06-21T07:42:17.849Z,1.00
2023-06-21T07:44:46.566Z,99.90
2023-06-21T07:47:14.375Z,36.10
2023-06-21T07:49:41.614Z,99.90
2023-06-21T07:52:09.091Z,99.90
2023-06-21T07:54:36.236Z,1.00
2023-06-21T07:57:03.825Z,1.00
2023-06-21T07:59:32.331Z,1.00
2023-06-21T08:02:01.428Z,1.00
2023-06-21T08:04:28.787Z,1.00
2023-06-21T08:06:56.689Z,1.00
2023-06-21T08:09:23.744Z,1.00
2023-06-21T08:11:51.104Z,1.00
2023-06-21T08:14:18.226Z,99.90
2023-06-21T08:16:45.904Z,99.90
2023-06-21T08:19:13.074Z,99.90
2023-06-21T08:21:41.012Z,99.90
2023-06-21T08:24:08.701Z,99.90
2023-06-21T08:26:36.061Z,99.90
2023-06-21T08:29:03.326Z,99.90
2023-06-21T08:31:30.743Z,99.90
2023-06-21T08:33:57.862Z,99.90
2023-06-21T08:36:26.142Z,99.90
2023-06-21T08:38:53.370Z,99.90
2023-06-21T08:41:21.731Z,99.90
2023-06-21T08:43:48.937Z,99.90
2023-06-21T08:46:17.810Z,99.90
2023-06-21T08:48:48.064Z,99.90
2023-06-21T08:51:16.219Z,99.90
2023-06-21T08:53:51.010Z,99.90
2023-06-21T08:56:24.392Z,99.90
2023-06-21T08:59:01.258Z,99.90
2023-06-21T09:01:32.730Z,99.90
2023-06-21T09:04:03.117Z,99.90
2023-06-21T09:06:31.308Z,99.90
2023-06-21T09:08:58.376Z,99.90
2023-06-21T09:11:26.331Z,99.90
2023-06-21T09:13:53.974Z,99.90
2023-06-21T09:16:21.323Z,99.90
2023-06-21T09:18:48.748Z,99.90
2023-06-21T09:21:17.472Z,99.90
2023-06-21T09:23:44.664Z,99.90
2023-06-21T09:26:13.056Z,99.90
2023-06-21T09:28:40.280Z,99.90
2023-06-21T09:31:07.946Z,99.90
2023-06-21T09:33:37.728Z,99.90
2023-06-21T09:36:06.905Z,99.90
2023-06-21T09:38:36.882Z,99.90
2023-06-21T09:41:07.855Z,99.90
2023-06-21T09:43:42.824Z,99.90
2023-06-21T09:46:12.813Z,99.90
2023-06-21T09:48:40.969Z,99.90
2023-06-21T09:51:12.234Z,99.90
2023-06-21T09:53:46.950Z,99.90
2023-06-21T09:56:18.950Z,99.90
2023-06-21T09:58:48.310Z,99.90
2023-06-21T10:01:16.531Z,99.90
2023-06-21T10:03:48.506Z,99.90
2023-06-21T10:06:19.293Z,99.90
2023-06-21T10:08:52.830Z,99.90
2023-06-21T10:11:21.598Z,99.90
2023-06-21T10:13:49.420Z,99.90
2023-06-21T10:16:20.005Z,99.90
2023-06-21T10:18:48.632Z,99.90
2023-06-21T10:21:19.411Z,99.90
2023-06-21T10:23:50.716Z,99.90
2023-06-21T10:26:19.579Z,99.90
2023-06-21T10:28:54.547Z,99.90
2023-06-21T10:31:25.178Z,99.90
2023-06-21T10:33:55.300Z,99.90
2023-06-21T10:36:31.732Z,99.90
2023-06-21T10:39:07.041Z,99.90
2023-06-21T10:41:35.117Z,99.90
2023-06-21T10:44:03.859Z,99.90
2023-06-21T10:46:32.181Z,99.90
2023-06-21T10:49:02.082Z,99.90
2023-06-21T10:51:30.302Z,99.90
2023-06-21T10:53:58.628Z,99.90
2023-06-21T10:56:28.087Z,99.90
2023-06-21T10:58:55.097Z,99.90
2023-06-21T11:01:23.380Z,99.90
2023-06-21T11:03:51.100Z,99.90
2023-06-21T11:06:25.526Z,99.90
2023-06-21T11:08:52.762Z,99.90
2023-06-21T11:11:38.301Z,99.90
2023-06-21T11:14:05.628Z,99.90
2023-06-21T11:16:38.324Z,99.90
2023-06-21T11:19:08.687Z,99.90
2023-06-21T11:21:47.970Z,99.90
2023-06-21T11:24:27.666Z,99.90
2023-06-21T11:26:58.969Z,99.90
2023-06-21T11:29:52.188Z,99.90
2023-06-21T11:32:19.827Z,1.00
2023-06-21T11:35:01.288Z,99.90
2023-06-21T11:37:35.184Z,1.00
2023-06-21T11:40:04.608Z,1.00
2023-06-21T11:42:44.567Z,1.00
2023-06-21T11:45:34.412Z,99.90
2023-06-21T11:48:14.238Z,99.90
2023-06-21T11:50:46.746Z,99.90
2023-06-21T11:53:24.607Z,99.90
2023-06-21T11:55:55.849Z,99.90
2023-06-21T11:58:24.376Z,1.00
2023-06-21T12:00:52.178Z,1.00
2023-06-21T12:03:22.708Z,1.00
2023-06-21T12:05:58.944Z,99.90
2023-06-21T12:08:37.352Z,1.00
2023-06-21T12:11:04.374Z,99.90
2023-06-21T12:13:32.974Z,99.90
2023-06-21T12:16:05.301Z,91.20
2023-06-21T12:18:34.603Z,5.90
2023-06-21T12:21:06.484Z,1.00
2023-06-21T12:23:34.351Z,1.00
2023-06-21T12:26:06.670Z,1.00
2023-06-21T12:28:35.879Z,1.00
2023-06-21T12:31:04.208Z,1.00
2023-06-21T12:33:33.595Z,1.00
2023-06-21T12:36:21.681Z,1.00
2023-06-21T12:39:00.370Z,1.00
2023-06-21T12:41:28.956Z,1.00
2023-06-21T12:44:00.947Z,1.00
2023-06-21T12:46:29.219Z,1.00
2023-06-21T12:48:58.777Z,1.00
2023-06-21T12:51:29.834Z,1.00
2023-06-21T12:53:58.783Z,1.00
2023-06-21T12:56:34.009Z,1.00
2023-06-21T12:59:02.815Z,1.00
2023-06-21T13:01:32.054Z,1.00
2023-06-21T13:04:01.198Z,1.00
2023-06-21T13:06:28.813Z,1.00
2023-06-21T13:08:57.944Z,1.00
2023-06-21T13:11:26.660Z,1.00
2023-06-21T13:13:54.759Z,1.00
2023-06-21T13:16:22.017Z,1.00
2023-06-21T13:18:50.232Z,1.00
2023-06-21T13:21:18.571Z,1.00
2023-06-21T13:23:47.087Z,99.90
2023-06-21T13:26:14.198Z,99.90
2023-06-21T13:28:42.015Z,99.90
2023-06-21T13:31:09.124Z,99.90
2023-06-21T13:33:36.525Z,99.90
2023-06-21T13:36:03.698Z,99.90
2023-06-21T13:38:34.619Z,99.90
2023-06-21T13:41:04.611Z,99.90
2023-06-21T13:43:32.504Z,99.90
2023-06-21T13:45:59.863Z,99.90
2023-06-21T13:48:27.281Z,99.90
2023-06-21T13:50:54.874Z,99.90
2023-06-21T13:53:22.909Z,68.00
2023-06-21T13:55:50.580Z,1.00
2023-06-21T13:58:18.273Z,99.90
2023-06-21T14:00:45.880Z,99.90
2023-06-21T14:03:13.521Z,99.90
2023-06-21T14:05:40.840Z,99.90
2023-06-21T14:08:08.159Z,99.90
2023-06-21T14:10:35.330Z,99.90
2023-06-21T14:13:03.030Z,99.90
2023-06-21T14:15:30.211Z,99.90
2023-06-21T14:18:03.545Z,99.90
2023-06-21T14:20:31.471Z,99.90
2023-06-21T14:22:59.452Z,95.60
2023-06-21T14:25:26.660Z,86.40
2023-06-21T14:27:53.982Z,85.10
2023-06-21T14:30:21.348Z,68.70
2023-06-21T14:32:49.219Z,59.10
2023-06-21T14:35:16.464Z,59.80
2023-06-21T14:37:48.733Z,48.20
2023-06-21T14:40:16.042Z,44.40
2023-06-21T14:42:44.813Z,17.30
2023-06-21T14:45:12.290Z,10.50
2023-06-21T14:47:40.407Z,5.30
2023-06-21T14:50:08.068Z,10.20
2023-06-21T14:52:35.442Z,1.70
2023-06-21T14:55:03.490Z,1.00
2023-06-21T14:57:30.835Z,1.00
2023-06-21T14:59:58.346Z,1.00
2023-06-21T15:02:26.077Z,1.00
2023-06-21T15:04:53.256Z,1.00
2023-06-21T15:07:21.050Z,1.00
2023-06-21T15:09:48.234Z,1.00
2023-06-21T15:12:16.066Z,1.00
2023-06-21T15:14:43.313Z,1.00
2023-06-21T15:17:11.141Z,1.00
2023-06-21T15:19:38.156Z,2.00
2023-06-21T15:22:06.125Z,11.30
2023-06-21T15:24:33.780Z,17.00
2023-06-21T15:27:01.299Z,27.10
2023-06-21T15:29:28.369Z,42.60
2023-06-21T15:31:55.768Z,57.10
2023-06-21T15:34:22.922Z,71.60
2023-06-21T15:36:50.387Z,89.80
2023-06-21T15:39:17.527Z,99.90
2023-06-21T15:41:49.247Z,99.90
2023-06-21T15:44:16.400Z,99.90
2023-06-21T15:46:47.409Z,99.90
2023-06-21T15:49:15.375Z,99.90
2023-06-21T15:51:42.790Z,99.90
2023-06-21T15:54:10.200Z,99.90
2023-06-21T15:56:37.855Z,99.90
2023-06-21T15:59:05.127Z,99.90
2023-06-21T16:01:32.764Z,99.90
2023-06-21T16:03:59.867Z,99.90
2023-06-21T16:06:27.231Z,99.90
2023-06-21T16:08:56.836Z,99.90
2023-06-21T16:11:25.280Z,99.90
2023-06-21T16:13:52.378Z,99.90
2023-06-21T16:16:20.030Z,99.90
2023-06-21T16:18:50.010Z,99.90
2023-06-21T16:21:17.484Z,99.90
2023-06-21T16:23:44.585Z,99.90
2023-06-21T16:26:12.459Z,99.90
2023-06-21T16:28:39.551Z,99.90
2023-06-21T16:31:07.267Z,99.90
2023-06-21T16:33:34.495Z,99.90
2023-06-21T16:36:02.122Z,99.90
2023-06-21T16:38:30.414Z,99.90
2023-06-21T16:40:57.822Z,99.90
2023-06-21T16:43:24.966Z,1.00
2023-06-21T16:45:52.735Z,1.00
2023-06-21T16:48:19.782Z,1.00
2023-06-21T16:50:47.441Z,1.00
2023-06-21T16:53:14.549Z,1.00
2023-06-21T16:55:42.399Z,14.20
2023-06-21T16:58:09.442Z,80.30
2023-06-21T17:00:36.877Z,99.90
2023-06-21T17:03:05.005Z,99.90
2023-06-21T17:05:34.215Z,99.90
2023-06-21T17:08:01.376Z,99.90
2023-06-21T17:10:28.760Z,99.90
2023-06-21T17:12:57.270Z,99.90
2023-06-21T17:15:24.757Z,99.90
2023-06-21T17:17:51.812Z,1.00
2023-06-21T17:20:19.511Z,99.90
2023-06-21T17:22:47.001Z,99.90
2023-06-21T17:25:14.762Z,99.90
2023-06-21T17:27:41.980Z,99.90
2023-06-21T17:30:09.878Z,99.90
2023-06-21T17:32:37.064Z,99.90
2023-06-21T17:35:05.408Z,99.90
2023-06-21T17:37:32.438Z,99.90
2023-06-21T17:39:59.824Z,99.90
2023-06-21T17:42:26.884Z,99.90
2023-06-21T17:44:54.252Z,99.90
2023-06-21T17:47:21.389Z,99.90
2023-06-21T17:49:48.739Z,99.90
2023-06-21T17:52:16.480Z,99.90
2023-06-21T17:54:43.810Z,99.90
2023-06-21T17:57:10.847Z,1.00
2023-06-21T17:59:38.226Z,1.00
2023-06-21T18:02:06.731Z,1.00
2023-06-21T18:04:34.152Z,32.60
2023-06-21T18:07:01.235Z,99.90
2023-06-21T18:09:28.588Z,99.90
2023-06-21T18:11:55.753Z,99.90
2023-06-21T18:14:23.826Z,1.00
2023-06-21T18:16:50.931Z,14.60
2023-06-21T18:19:18.598Z,66.50
2023-06-21T18:21:45.819Z,99.90
2023-06-21T18:24:16.274Z,99.90
2023-06-21T18:26:43.484Z,99.90
2023-06-21T18:29:10.890Z,1.00
2023-06-21T18:31:38.051Z,99.90
2023-06-21T18:34:05.552Z,99.90
2023-06-21T18:36:33.079Z,1.00
2023-06-21T18:39:01.035Z,99.90
2023-06-21T18:41:28.237Z,99.90
2023-06-21T18:43:55.692Z,99.90
2023-06-21T18:46:23.794Z,99.90
2023-06-21T18:48:53.387Z,99.90
2023-06-21T18:51:25.481Z,99.90
2023-06-21T18:53:53.550Z,99.90
2023-06-21T18:56:21.809Z,1.00
2023-06-21T18:58:51.386Z,1.00
2023-06-21T19:01:18.382Z,16.40
2023-06-21T19:03:46.256Z,93.10
2023-06-21T19:06:13.598Z,99.90
2023-06-21T19:08:41.257Z,99.90
2023-06-21T19:11:08.278Z,99.90
2023-06-21T19:13:35.636Z,99.90
2023-06-21T19:16:02.726Z,1.00
2023-06-21T19:18:30.026Z,1.00
2023-06-21T19:20:57.053Z,1.00
2023-06-21T19:23:24.449Z,1.00
2023-06-21T19:25:51.444Z,1.00
2023-06-21T19:28:18.922Z,1.00
2023-06-21T19:30:45.964Z,1.00
2023-06-21T19:33:13.397Z,1.00
2023-06-21T19:35:40.518Z,4.30
2023-06-21T19:38:07.959Z,14.90
2023-06-21T19:40:35.566Z,26.00
2023-06-21T19:43:03.672Z,39.00
2023-06-21T19:45:31.026Z,50.00
2023-06-21T19:47:58.770Z,58.90
2023-06-21T19:50:26.183Z,69.30
2023-06-21T19:52:53.704Z,78.60
2023-06-21T19:55:20.772Z,88.20
2023-06-21T19:57:48.068Z,92.60
2023-06-21T20:00:16.324Z,95.00
2023-06-21T20:02:44.339Z,96.40
2023-06-21T20:05:16.341Z,99.90
2023-06-21T20:07:43.676Z,99.90
2023-06-21T20:10:11.126Z,99.90
2023-06-21T20:12:38.984Z,99.90
2023-06-21T20:15:07.019Z,99.90
2023-06-21T20:17:36.894Z,99.90
2023-06-21T20:20:05.917Z,99.90
2023-06-21T20:22:33.740Z,99.90
2023-06-21T20:25:01.951Z,99.90
2023-06-21T20:27:29.333Z,99.90
2023-06-21T20:29:56.471Z,99.90
2023-06-21T20:32:24.268Z,99.90
2023-06-21T20:34:51.382Z,99.90
2023-06-21T20:37:18.714Z,99.90
2023-06-21T20:39:47.392Z,99.90
2023-06-21T20:42:15.551Z,99.90
2023-06-21T20:44:42.778Z,99.90
2023-06-21T20:47:10.363Z,99.90
2023-06-21T20:49:37.411Z,99.90
2023-06-21T20:52:05.415Z,99.90
2023-06-21T20:54:34.039Z,99.90
2023-06-21T20:57:01.748Z,99.90
2023-06-21T20:59:29.017Z,99.90
2023-06-21T21:01:56.461Z,99.90
2023-06-21T21:04:23.754Z,99.90
2023-06-21T21:06:51.414Z,99.90
2023-06-21T21:09:18.666Z,99.90
2023-06-21T21:11:48.123Z,99.90
2023-06-21T21:14:15.239Z,99.90
2023-06-21T21:16:42.617Z,99.90
2023-06-21T21:19:12.088Z,99.90
2023-06-21T21:21:40.549Z,99.90
2023-06-21T21:24:07.594Z,99.90
2023-06-21T21:26:34.906Z,99.90
2023-06-21T21:29:01.923Z,99.90
2023-06-21T21:31:29.275Z,99.90
2023-06-21T21:33:56.418Z,99.90
2023-06-21T21:36:23.914Z,99.90
2023-06-21T21:38:51.047Z,99.90
2023-06-21T21:41:18.467Z,99.90
2023-06-21T21:43:46.982Z,99.90
2023-06-21T21:46:14.496Z,99.90
2023-06-21T21:48:41.685Z,99.90
2023-06-21T21:51:09.275Z,99.90
2023-06-21T21:53:36.322Z,99.90
2023-06-21T21:56:04.032Z,99.90
2023-06-21T21:58:31.105Z,99.90
2023-06-21T22:00:58.727Z,99.90
2023-06-21T22:03:26.795Z,99.90
2023-06-21T22:05:54.336Z,99.90
2023-06-21T22:08:21.431Z,99.90
2023-06-21T22:10:50.071Z,99.90
2023-06-21T22:13:20.241Z,99.90
2023-06-21T22:15:53.737Z,99.90
2023-06-21T22:18:26.814Z,99.90
2023-06-21T22:20:59.584Z,99.90
2023-06-21T22:23:30.927Z,99.90
2023-06-21T22:26:00.474Z,99.90
2023-06-21T22:28:27.913Z,99.90
2023-06-21T22:30:56.370Z,99.90
2023-06-21T22:33:27.439Z,99.90
2023-06-21T22:35:54.914Z,99.90
2023-06-21T22:38:22.062Z,99.90
2023-06-21T22:40:49.662Z,99.90
2023-06-21T22:43:17.654Z,99.90
2023-06-21T22:45:45.225Z,99.90
2023-06-21T22:48:14.853Z,99.90
2023-06-21T22:50:46.779Z,99.90
2023-06-21T22:53:15.488Z,99.90
2023-06-21T22:55:44.186Z,99.90
2023-06-21T22:58:11.457Z,99.90
2023-06-21T23:00:38.917Z,99.90
2023-06-21T23:03:06.266Z,99.90
2023-06-21T23:05:34.005Z,99.90
2023-06-21T23:08:02.619Z,99.90
2023-06-21T23:10:31.250Z,99.90
2023-06-21T23:12:59.570Z,99.90
2023-06-21T23:15:27.062Z,99.90
2023-06-21T23:17:55.800Z,99.90
2023-06-21T23:20:23.437Z,99.90
2023-06-21T23:22:50.577Z,99.90
2023-06-21T23:25:18.738Z,99.90
2023-06-21T23:27:46.014Z,99.90
2023-06-21T23:30:35.370Z,99.90
2023-06-21T23:33:06.026Z,99.90
2023-06-21T23:35:38.457Z,99.90
2023-06-21T23:38:07.055Z,99.90
2023-06-21T23:40:37.135Z,99.90
2023-06-21T23:43:05.107Z,99.90
2023-06-21T23:45:32.454Z,99.90
2023-06-21T23:47:59.527Z,99.90
2023-06-21T23:50:27.424Z,99.90
2023-06-21T23:52:55.567Z,99.90
2023-06-21T23:55:24.626Z,99.90
2023-06-21T23:57:51.742Z,99.90
